Flight Track Log - Related Links

Times and Time Zones

All times are in EDT time to prevent confusion due to time zone crossing. See the CES5437 flight status page for this flight to view local times or setup timezone preferences in your user account.

Time Position Orientation Groundspeed Altitude Reporting Facility
EDT Latitude Longitude Course Direction KTS MPH feet Rate Location/Type
Tue 07:14:00 AM 32.8706 114.1884 238° Southwest  Level Estimated
Tue 07:15:00 AM 32.8143 114.0942 235° Southwest  Level Estimated
Tue 07:16:00 AM 32.7579 114.0001 235° Southwest  Level Estimated
Tue 07:17:00 AM 32.7015 113.9062 234° Southwest  Level Estimated
Tue 07:18:00 AM 32.6449 113.8123 234° Southwest  Level Estimated
Tue 07:19:00 AM 32.5883 113.7186 234° Southwest  Level Estimated
Tue 07:20:00 AM 32.5317 113.6250 234° Southwest  Level Estimated
Tue 07:21:00 AM 32.4749 113.5315 234° Southwest  Level Estimated
Tue 07:22:00 AM 32.4181 113.4382 234° Southwest  Level Estimated
Tue 07:23:00 AM 32.3612 113.3449 234° Southwest  Level Estimated
Tue 07:24:00 AM 32.3043 113.2518 234° Southwest  Level Estimated
Tue 07:25:00 AM 32.2473 113.1588 234° Southwest  Level Estimated
Tue 07:26:00 AM 32.1902 113.0659 234° Southwest  Level Estimated
Tue 07:27:00 AM 32.1330 112.9731 234° Southwest  Level Estimated
Tue 07:28:00 AM 32.0758 112.8804 234° Southwest  Level Estimated
Tue 07:29:00 AM 32.0185 112.7879 234° Southwest  Level Estimated
Tue 07:30:00 AM 31.9612 112.6954 234° Southwest  Level Estimated
Tue 07:31:00 AM 31.9037 112.6031 234° Southwest  Level Estimated
Tue 07:32:00 AM 31.8463 112.5109 234° Southwest  Level Estimated
Tue 07:33:00 AM 31.7887 112.4188 234° Southwest  Level Estimated
Tue 07:34:00 AM 31.7311 112.3269 234° Southwest  Level Estimated
Tue 07:35:00 AM 31.6734 112.2350 234° Southwest  Level Estimated
Tue 07:36:00 AM 31.6156 112.1433 234° Southwest  Level Estimated
Tue 07:37:00 AM 31.5578 112.0516 233° Southwest  Level Estimated
Tue 07:38:00 AM 31.4999 111.9601 233° Southwest  Level Estimated
Tue 07:39:00 AM 31.4420 111.8687 233° Southwest  Level Estimated
Tue 07:40:00 AM 31.3840 111.7774 233° Southwest  Level Estimated
Tue 07:41:00 AM 31.3259 111.6862 233° Southwest  Level Estimated
Tue 07:42:00 AM 31.2677 111.5952 233° Southwest  Level Estimated
Tue 07:43:00 AM 31.2095 111.5042 233° Southwest  Level Estimated
Tue 07:44:00 AM 31.1513 111.4134 233° Southwest  Level Estimated
Tue 07:45:00 AM 31.0929 111.3227 233° Southwest  Level Estimated
Tue 07:46:00 AM 31.0345 111.2320 233° Southwest  Level Estimated
Tue 07:47:00 AM 30.9761 111.1415 233° Southwest  Level Estimated
Tue 07:48:00 AM 30.9175 111.0511 233° Southwest  Level Estimated
Tue 07:49:00 AM 30.8590 110.9608 233° Southwest  Level Estimated
Tue 07:50:00 AM 30.8003 110.8707 233° Southwest  Level Estimated
Tue 07:51:00 AM 30.7416 110.7806 233° Southwest  Level Estimated
Tue 07:52:00 AM 30.6828 110.6906 233° Southwest  Level Estimated
Tue 07:53:00 AM 30.6240 110.6008 233° Southwest  Level Estimated
Tue 07:54:00 AM 30.5651 110.5110 233° Southwest  Level Estimated
Tue 07:55:00 AM 30.5061 110.4214 233° Southwest  Level Estimated
Tue 07:56:00 AM 30.4471 110.3319 233° Southwest  Level Estimated
Tue 07:57:00 AM 30.3880 110.2425 233° Southwest  Level Estimated
Tue 07:58:00 AM 30.3289 110.1532 233° Southwest  Level Estimated
Tue 07:59:00 AM 30.2697 110.0640 232° Southwest  Level Estimated
Tue 08:00:00 AM 30.2104 109.9749 232° Southwest  Level Estimated
Tue 08:01:00 AM 30.1511 109.8859 232° Southwest  Level Estimated
Tue 08:02:00 AM 30.0917 109.7971 232° Southwest  Level Estimated
Tue 08:03:00 AM 30.0323 109.7083 232° Southwest  Level Estimated
Tue 08:04:00 AM 29.9728 109.6196 232° Southwest  Level Estimated
Tue 08:05:00 AM 29.9132 109.5311 232° Southwest  Level Estimated
Tue 08:06:00 AM 29.8536 109.4426 232° Southwest  Level Estimated
Tue 08:07:00 AM 29.7939 109.3543 232° Southwest  Level Estimated
Tue 08:08:00 AM 29.7342 109.2661 232° Southwest  Level Estimated
Tue 08:09:00 AM 29.6744 109.1779 232° Southwest  Level Estimated
Tue 08:10:00 AM 29.6145 109.0899 232° Southwest  Level Estimated
Tue 08:11:00 AM 29.5546 109.0020 232° Southwest  Level Estimated
Tue 08:12:00 AM 29.4946 108.9141 232° Southwest  Level Estimated
Tue 08:13:00 AM 29.4346 108.8264 232° Southwest  Level Estimated
Tue 08:14:00 AM 29.3745 108.7388 232° Southwest  Level Estimated
Tue 08:15:00 AM 29.3144 108.6513 232° Southwest  Level Estimated
Tue 08:16:00 AM 29.2542 108.5639 232° Southwest  Level Estimated
Tue 08:17:00 AM 29.1939 108.4766 232° Southwest  Level Estimated
Tue 08:18:00 AM 29.1336 108.3894 232° Southwest  Level Estimated
Tue 08:19:00 AM 29.0732 108.3023 232° Southwest  Level Estimated
Tue 08:20:00 AM 29.0128 108.2153 232° Southwest  Level Estimated
Tue 08:21:00 AM 28.9523 108.1284 232° Southwest  Level Estimated
Tue 08:22:00 AM 28.8918 108.0416 231° Southwest  Level Estimated
Tue 08:23:00 AM 28.8312 107.9550 231° Southwest  Level Estimated
Tue 08:24:00 AM 28.7706 107.8684 231° Southwest  Level Estimated
Tue 08:25:00 AM 28.7099 107.7819 231° Southwest  Level Estimated
Tue 08:26:00 AM 28.6491 107.6955 231° Southwest  Level Estimated
Tue 08:27:00 AM 28.5883 107.6092 231° Southwest  Level Estimated
Tue 08:28:00 AM 28.5274 107.5230 231° Southwest  Level Estimated
Tue 08:29:00 AM 28.4665 107.4369 231° Southwest  Level Estimated
Tue 08:30:00 AM 28.4055 107.3509 231° Southwest  Level Estimated
Tue 08:31:00 AM 28.3445 107.2650 231° Southwest  Level Estimated
Tue 08:32:00 AM 28.2834 107.1793 231° Southwest  Level Estimated
Tue 08:33:00 AM 28.2222 107.0936 231° Southwest  Level Estimated
Tue 08:34:00 AM 28.1611 107.0080 231° Southwest  Level Estimated
Tue 08:35:00 AM 28.0998 106.9225 231° Southwest  Level Estimated
Tue 08:36:00 AM 28.0385 106.8371 231° Southwest  Level Estimated
Tue 08:37:00 AM 27.9772 106.7518 231° Southwest  Level Estimated
Tue 08:38:00 AM 27.9158 106.6666 231° Southwest  Level Estimated
Tue 08:39:00 AM 27.8543 106.5815 231° Southwest  Level Estimated
Tue 08:40:00 AM 27.7928 106.4965 231° Southwest  Level Estimated
Tue 08:41:00 AM 27.7312 106.4115 231° Southwest  Level Estimated
Tue 08:42:00 AM 27.6696 106.3267 231° Southwest  Level Estimated
Tue 08:43:00 AM 27.6080 106.2420 231° Southwest  Level Estimated
Tue 08:44:00 AM 27.5462 106.1574 231° Southwest  Level Estimated
Tue 08:45:00 AM 27.4845 106.0728 231° Southwest  Level Estimated
Tue 08:46:00 AM 27.4226 105.9884 230° Southwest  Level Estimated
Tue 08:47:00 AM 27.3608 105.9041 230° Southwest  Level Estimated
Tue 08:48:00 AM 27.2989 105.8198 230° Southwest  Level Estimated
Tue 08:49:00 AM 27.2369 105.7356 230° Southwest  Level Estimated
Tue 08:50:00 AM 27.1749 105.6516 230° Southwest  Level Estimated
Tue 08:51:00 AM 27.1128 105.5676 230° Southwest  Level Estimated
Tue 08:52:00 AM 27.0507 105.4837 230° Southwest  Level Estimated
Tue 08:53:00 AM 26.9885 105.4000 230° Southwest  Level Estimated
Tue 08:54:00 AM 26.9263 105.3163 230° Southwest  Level Estimated
Tue 08:55:00 AM 26.8640 105.2327 230° Southwest  Level Estimated
Tue 08:56:00 AM 26.8017 105.1492 230° Southwest  Level Estimated
Tue 08:57:00 AM 26.7393 105.0658 230° Southwest  Level Estimated
Tue 08:58:00 AM 26.6769 104.9824 230° Southwest  Level Estimated
Tue 08:59:00 AM 26.6145 104.8992 230° Southwest  Level Estimated
Tue 09:00:00 AM 26.5520 104.8161 230° Southwest  Level Estimated
Tue 09:01:00 AM 26.4894 104.7330 230° Southwest  Level Estimated
Tue 09:02:00 AM 26.4268 104.6500 230° Southwest  Level Estimated
Tue 09:03:00 AM 26.3641 104.5672 230° Southwest  Level Estimated
Tue 09:04:00 AM 26.3014 104.4844 230° Southwest  Level Estimated
Tue 09:05:00 AM 26.2387 104.4017 230° Southwest  Level Estimated
Tue 09:06:00 AM 26.1759 104.3191 230° Southwest  Level Estimated
Tue 09:07:00 AM 26.1130 104.2366 230° Southwest  Level Estimated
Tue 09:08:00 AM 26.0501 104.1542 230° Southwest  Level Estimated
Tue 09:09:00 AM 25.9872 104.0719 230° Southwest  Level Estimated
Tue 09:10:00 AM 25.9242 103.9896 230° Southwest  Level Estimated
Tue 09:11:00 AM 25.8612 103.9074 230° Southwest  Level Estimated
Tue 09:12:00 AM 25.7981 103.8254 230° Southwest  Level Estimated
Tue 09:13:00 AM 25.7350 103.7434 229° Southwest  Level Estimated
Tue 09:14:00 AM 25.6718 103.6615 229° Southwest  Level Estimated
Tue 09:15:00 AM 25.6086 103.5797 229° Southwest  Level Estimated
Tue 09:16:00 AM 25.5453 103.4980 229° Southwest  Level Estimated
Tue 09:17:00 AM 25.4820 103.4163 229° Southwest  Level Estimated
Tue 09:18:00 AM 25.4187 103.3348 229° Southwest  Level Estimated
Tue 09:19:00 AM 25.3553 103.2533 229° Southwest  Level Estimated
Tue 09:20:00 AM 25.2918 103.1719 229° Southwest  Level Estimated
Tue 09:21:00 AM 25.2284 103.0906 229° Southwest  Level Estimated
Tue 09:22:00 AM 25.1648 103.0094 229° Southwest  Level Estimated
Tue 09:23:00 AM 25.1019 102.9292 229° Southwest  Level Estimated
Tue 09:24:00 AM 25.1019 102.9292 326° Northwest  Level Estimated
Tue 09:25:00 AM 25.1019 102.9292 326° Northwest  Level Estimated
Tue 09:26:00 AM 25.1019 102.9292 326° Northwest  Level Estimated
Tue 09:27:00 AM 25.1019 102.9292 326° Northwest  Level Estimated
Tue 09:28:00 AM 25.1019 102.9292 326° Northwest  Level Estimated
Tue 09:29:00 AM 25.1019 102.9292 326° Northwest  Level Estimated
Tue 09:30:00 AM 25.1019 102.9292 326° Northwest  Level Estimated
Tue 09:31:00 AM 25.1019 102.9292 326° Northwest  Level Estimated
Tue 09:32:00 AM 25.1019 102.9292 326° Northwest  Level Estimated
Tue 09:33:00 AM 25.1019 102.9292 326° Northwest  Level Estimated
Tue 09:34:00 AM 25.1019 102.9292 326° Northwest  Level Estimated
Tue 09:35:00 AM 25.1019 102.9292 326° Northwest  Level Estimated
Tue 09:36:00 AM 25.1019 102.9292 326° Northwest  Level Estimated
Tue 09:37:00 AM 25.1019 102.9292 326° Northwest  Level Estimated
Tue 09:38:00 AM 25.1019 102.9292 326° Northwest  Level Estimated
Tue 09:39:00 AM 25.1019 102.9292 326° Northwest  Level Estimated
Tue 09:40:00 AM 25.1019 102.9292 326° Northwest  Level Estimated
Tue 09:41:00 AM 25.1019 102.9292 326° Northwest  Level Estimated
Tue 09:42:00 AM 25.1019 102.9292 326° Northwest  Level Estimated
Tue 09:43:00 AM 25.1019 102.9292 326° Northwest  Level Estimated
Tue 09:44:00 AM 25.1019 102.9292 326° Northwest  Level Estimated

Login

Don't have an account? Register now (free) for customized features, flight alerts, and more!